Time;durP1;ratioP1;P1;durP2;ratioP2;P2;SDS_P1;SDS_P2;PMS_P1;PMS_P2;Temp;Humidity;BMP_temperature;BMP_pressure;BME280_temperature;BME280_humidity;BME280_pressure;Samples;Min_cycle;Max_cycle;Signal;HPM_P1;HPM_P2
2023/04/17 00:01:36;;;;;;;0.22;0.22;;;7.50;99.90;;;;;;5035228;28;20075;-73
2023/04/17 00:04:02;;;;;;;0.20;0.20;;;7.60;99.90;;;;;;5034875;28;20036;-73
2023/04/17 00:06:28;;;;;;;0.30;0.30;;;7.60;99.90;;;;;;5035229;28;20036;-74
2023/04/17 00:08:54;;;;;;;0.20;0.20;;;7.50;99.90;;;;;;5017426;28;20394;-73
2023/04/17 00:11:20;;;;;;;0.17;0.17;;;7.50;99.90;;;;;;5035333;28;20028;-74
2023/04/17 00:13:46;;;;;;;0.10;0.10;;;7.50;99.90;;;;;;5035270;28;20132;-73
2023/04/17 00:16:12;;;;;;;0.10;0.10;;;7.40;99.90;;;;;;5034704;28;20026;-74
2023/04/17 00:18:39;;;;;;;0.20;0.20;;;7.50;99.90;;;;;;5035171;28;20025;-74
2023/04/17 00:21:04;;;;;;;0.20;0.20;;;7.40;99.90;;;;;;5035090;28;20029;-73
2023/04/17 00:23:30;;;;;;;0.20;0.20;;;7.40;99.90;;;;;;5015952;28;20083;-74
2023/04/17 00:25:55;;;;;;;0.20;0.20;;;7.40;99.90;;;;;;5035023;28;20097;-73
2023/04/17 00:28:21;;;;;;;0.20;0.20;;;7.40;99.90;;;;;;5017234;28;20482;-73
2023/04/17 00:30:47;;;;;;;0.20;0.20;;;7.40;99.90;;;;;;5016846;28;20028;-74
2023/04/17 00:33:12;;;;;;;0.20;0.20;;;7.30;99.90;;;;;;5034164;28;20394;-73
2023/04/17 00:35:38;;;;;;;0.20;0.20;;;7.30;99.90;;;;;;5034695;28;20036;-73
2023/04/17 00:38:03;;;;;;;0.10;0.10;;;7.30;99.90;;;;;;5034539;28;20029;-73
2023/04/17 00:40:29;;;;;;;0.20;0.20;;;7.30;99.90;;;;;;5034298;28;20021;-73
2023/04/17 00:43:02;;;;;;;0.28;0.28;;;7.30;99.90;;;;;;5034598;28;20021;-73
2023/04/17 00:45:29;;;;;;;0.20;0.20;;;7.30;99.90;;;;;;5034162;28;20037;-73
2023/04/17 00:47:57;;;;;;;0.20;0.20;;;7.30;99.90;;;;;;5034254;28;20026;-73
2023/04/17 00:50:25;;;;;;;0.20;0.20;;;7.30;99.90;;;;;;5034619;28;20387;-73
2023/04/17 00:52:51;;;;;;;0.30;0.30;;;7.30;99.90;;;;;;5015782;28;20087;-73
2023/04/17 00:55:17;;;;;;;0.20;0.20;;;7.20;99.90;;;;;;5058224;22;20045;-72
2023/04/17 00:57:43;;;;;;;0.20;0.20;;;7.20;99.90;;;;;;5036516;28;20022;-72
2023/04/17 01:00:10;;;;;;;0.20;0.20;;;7.30;99.90;;;;;;5041513;28;20055;-72
2023/04/17 01:02:36;;;;;;;0.20;0.20;;;7.20;99.90;;;;;;5049665;28;20505;-72
2023/04/17 01:05:02;;;;;;;0.10;0.10;;;7.20;99.90;;;;;;5035727;28;20037;-72
2023/04/17 01:07:29;;;;;;;0.20;0.20;;;7.20;99.90;;;;;;5051908;28;20059;-72
2023/04/17 01:09:55;;;;;;;0.10;0.10;;;7.20;99.90;;;;;;5036642;28;20096;-72
2023/04/17 01:12:22;;;;;;;0.20;0.20;;;7.20;99.90;;;;;;5036324;28;20060;-72
2023/04/17 01:14:52;;;;;;;0.20;0.20;;;7.20;99.90;;;;;;5036149;28;20026;-72
2023/04/17 01:17:18;;;;;;;0.20;0.20;;;7.20;99.90;;;;;;5051269;28;20026;-72
2023/04/17 01:19:45;;;;;;;0.20;0.20;;;7.20;99.90;;;;;;5050943;28;20037;-71
2023/04/17 01:22:10;;;;;;;0.20;0.20;;;7.20;99.90;;;;;;5036954;28;20025;-72
2023/04/17 01:24:36;;;;;;;0.20;0.20;;;7.10;99.90;;;;;;5036062;28;20127;-71
2023/04/17 01:27:03;;;;;;;0.20;0.20;;;7.20;99.90;;;;;;5036032;28;20044;-72
2023/04/17 01:29:28;;;;;;;0.20;0.20;;;7.20;99.90;;;;;;5035982;28;20021;-72
2023/04/17 01:31:54;;;;;;;0.17;0.17;;;7.30;99.90;;;;;;5034834;28;20376;-71
2023/04/17 01:34:19;;;;;;;0.20;0.20;;;7.30;99.90;;;;;;5035757;28;20104;-72
2023/04/17 01:36:45;;;;;;;0.20;0.20;;;7.30;99.90;;;;;;5036015;28;20022;-72
2023/04/17 01:39:11;;;;;;;0.20;0.20;;;7.30;99.90;;;;;;5035732;28;20021;-72
2023/04/17 01:41:36;;;;;;;0.20;0.20;;;7.30;99.90;;;;;;5035479;28;20064;-71
2023/04/17 01:44:02;;;;;;;0.20;0.20;;;7.30;99.90;;;;;;5035838;28;20505;-72
2023/04/17 01:46:28;;;;;;;0.20;0.20;;;7.40;99.90;;;;;;5035790;28;20029;-72
2023/04/17 01:48:54;;;;;;;0.13;0.13;;;7.30;99.90;;;;;;5035047;28;20021;-72
2023/04/17 01:51:19;;;;;;;0.20;0.20;;;7.30;99.90;;;;;;5033984;28;20024;-71
2023/04/17 01:53:45;;;;;;;0.20;0.20;;;7.40;99.90;;;;;;5035554;28;20021;-72
2023/04/17 01:56:12;;;;;;;0.20;0.20;;;7.30;99.90;;;;;;5035247;28;20048;-72
2023/04/17 01:58:38;;;;;;;0.20;0.20;;;7.30;99.90;;;;;;5035862;28;20033;-72
2023/04/17 02:01:04;;;;;;;0.20;0.20;;;7.30;99.90;;;;;;5035510;28;20029;-72
2023/04/17 02:03:30;;;;;;;0.10;0.10;;;7.40;99.90;;;;;;5033865;28;20075;-72
2023/04/17 02:05:56;;;;;;;0.17;0.17;;;7.40;99.90;;;;;;5035478;28;20070;-72
2023/04/17 02:08:22;;;;;;;0.17;0.17;;;7.30;99.90;;;;;;5035660;28;20030;-72
2023/04/17 02:10:48;;;;;;;0.20;0.20;;;7.30;99.90;;;;;;5035030;28;20034;-72
2023/04/17 02:13:13;;;;;;;0.15;0.15;;;7.40;99.90;;;;;;5034793;28;20030;-71
2023/04/17 02:15:39;;;;;;;0.20;0.20;;;7.40;99.90;;;;;;5035003;28;20025;-71
2023/04/17 02:18:05;;;;;;;0.20;0.20;;;7.40;99.90;;;;;;5035467;28;20029;-72
2023/04/17 02:20:31;;;;;;;0.15;0.15;;;7.40;99.90;;;;;;5035069;28;20026;-72
2023/04/17 02:23:01;;;;;;;0.10;0.10;;;7.40;99.90;;;;;;5033530;28;20018;-72
2023/04/17 02:25:30;;;;;;;0.20;0.20;;;7.40;99.90;;;;;;5034279;28;20441;-71
2023/04/17 02:27:56;;;;;;;0.10;0.10;;;7.40;99.90;;;;;;5035192;28;20036;-71
2023/04/17 02:30:25;;;;;;;0.20;0.20;;;7.40;99.90;;;;;;5035580;28;20096;-72
2023/04/17 02:32:52;;;;;;;0.10;0.10;;;7.40;99.90;;;;;;5015614;28;20026;-71
2023/04/17 02:35:19;;;;;;;0.20;0.20;;;7.40;99.90;;;;;;5015043;28;20473;-72
2023/04/17 02:37:45;;;;;;;0.28;0.28;;;7.30;99.90;;;;;;5019722;28;20037;-72
2023/04/17 02:40:10;;;;;;;0.20;0.20;;;7.30;99.90;;;;;;5034642;28;20075;-72
2023/04/17 02:42:36;;;;;;;0.10;0.10;;;7.30;99.90;;;;;;5035144;28;20395;-71
2023/04/17 02:45:03;;;;;;;0.20;0.20;;;7.30;99.90;;;;;;5034952;28;20373;-71
2023/04/17 02:47:29;;;;;;;0.20;0.20;;;7.30;99.90;;;;;;5034204;28;20024;-71
2023/04/17 02:49:55;;;;;;;0.20;0.20;;;7.30;99.90;;;;;;5034507;28;20100;-72
2023/04/17 02:52:23;;;;;;;0.10;0.10;;;7.20;99.90;;;;;;5034892;28;20017;-71
2023/04/17 02:54:49;;;;;;;0.10;0.10;;;7.20;99.90;;;;;;5034733;28;20033;-71
2023/04/17 02:57:14;;;;;;;0.13;0.13;;;7.10;99.90;;;;;;5034876;28;20124;-72
2023/04/17 02:59:40;;;;;;;0.20;0.20;;;7.10;99.90;;;;;;5034280;28;20036;-72
2023/04/17 03:02:05;;;;;;;0.10;0.10;;;7.10;99.90;;;;;;5033796;28;20116;-72
2023/04/17 03:04:33;;;;;;;0.20;0.20;;;7.10;99.90;;;;;;5033448;28;20026;-72
2023/04/17 03:06:59;;;;;;;0.30;0.30;;;7.10;99.90;;;;;;5037463;28;20037;-71
2023/04/17 03:09:25;;;;;;;0.20;0.20;;;7.10;99.90;;;;;;5038486;28;20479;-72
2023/04/17 03:11:50;;;;;;;0.20;0.20;;;7.00;99.90;;;;;;5037658;28;20040;-71
2023/04/17 03:14:16;;;;;;;0.20;0.20;;;7.00;99.90;;;;;;5038519;28;20022;-71
2023/04/17 03:16:41;;;;;;;0.15;0.15;;;7.00;99.90;;;;;;5038654;28;20025;-71
2023/04/17 03:19:07;;;;;;;0.20;0.20;;;7.00;99.90;;;;;;5038290;28;20036;-72
2023/04/17 03:21:33;;;;;;;0.20;0.20;;;7.00;99.90;;;;;;5036652;28;20033;-72
2023/04/17 03:23:58;;;;;;;0.20;0.20;;;7.00;99.90;;;;;;5038392;28;20036;-72
2023/04/17 03:26:24;;;;;;;0.13;0.13;;;7.10;99.90;;;;;;5036640;28;20082;-71
2023/04/17 03:28:50;;;;;;;0.20;0.20;;;7.00;99.90;;;;;;5038528;28;20064;-72
2023/04/17 03:31:18;;;;;;;0.30;0.30;;;6.90;99.90;;;;;;5037872;28;20025;-72
2023/04/17 03:33:44;;;;;;;0.20;0.20;;;7.00;99.90;;;;;;5037945;28;20022;-72
2023/04/17 03:36:10;;;;;;;0.20;0.20;;;7.00;99.90;;;;;;5037968;28;20495;-72
2023/04/17 03:38:37;;;;;;;0.20;0.20;;;7.00;99.90;;;;;;5038050;28;20025;-72
2023/04/17 03:41:02;;;;;;;0.20;0.20;;;7.00;99.90;;;;;;5037656;28;20043;-71
2023/04/17 03:43:31;;;;;;;0.17;0.17;;;6.90;99.90;;;;;;5036177;28;20480;-72
2023/04/17 03:45:56;;;;;;;0.20;0.20;;;6.90;99.90;;;;;;5037698;28;20029;-72
2023/04/17 03:48:22;;;;;;;0.20;0.20;;;6.90;99.90;;;;;;5038076;28;20027;-72
2023/04/17 03:50:47;;;;;;;0.20;0.20;;;6.90;99.90;;;;;;5038202;28;20021;-72
2023/04/17 03:53:13;;;;;;;0.10;0.10;;;6.90;99.90;;;;;;5037253;28;20064;-71
2023/04/17 03:55:38;;;;;;;0.20;0.20;;;6.90;99.90;;;;;;5036305;28;20068;-72
2023/04/17 03:58:04;;;;;;;0.20;0.20;;;6.90;99.90;;;;;;5037455;28;20033;-71
2023/04/17 04:00:30;;;;;;;0.10;0.10;;;6.90;99.90;;;;;;5037806;28;20475;-71
2023/04/17 04:02:56;;;;;;;0.20;0.20;;;6.90;99.90;;;;;;5037743;28;20021;-72
2023/04/17 04:05:24;;;;;;;0.30;0.30;;;6.90;99.90;;;;;;5037012;28;20091;-71
2023/04/17 04:07:50;;;;;;;0.20;0.20;;;6.90;99.90;;;;;;5037448;28;20053;-72
2023/04/17 04:10:15;;;;;;;0.20;0.20;;;6.80;99.90;;;;;;5037685;28;20014;-72
2023/04/17 04:12:41;;;;;;;0.30;0.30;;;6.80;99.90;;;;;;5037698;28;20554;-72
2023/04/17 04:15:07;;;;;;;0.13;0.13;;;6.80;99.90;;;;;;5037691;28;20029;-72
2023/04/17 04:17:32;;;;;;;0.10;0.10;;;6.70;99.90;;;;;;5036172;28;20731;-71
2023/04/17 04:19:58;;;;;;;0.10;0.10;;;6.70;99.90;;;;;;5053125;28;20067;-71
2023/04/17 04:22:24;;;;;;;0.17;0.17;;;6.60;99.90;;;;;;5037488;28;20024;-72
2023/04/17 04:24:52;;;;;;;0.20;0.20;;;6.60;99.90;;;;;;5037321;28;20514;-72
2023/04/17 04:27:21;;;;;;;0.20;0.20;;;6.60;99.90;;;;;;5036487;28;20104;-72
2023/04/17 04:29:48;;;;;;;0.20;0.20;;;6.60;99.90;;;;;;5035499;28;20025;-71
2023/04/17 04:32:14;;;;;;;0.10;0.10;;;6.70;99.90;;;;;;5037212;28;20464;-72
2023/04/17 04:34:43;;;;;;;0.15;0.15;;;6.70;99.90;;;;;;5037004;28;20026;-72
2023/04/17 04:37:09;;;;;;;0.30;0.30;;;6.70;99.90;;;;;;5036071;28;20111;-72
2023/04/17 04:39:36;;;;;;;0.20;0.20;;;6.80;99.90;;;;;;5036871;28;20436;-72
2023/04/17 04:42:04;;;;;;;0.20;0.20;;;6.80;99.90;;;;;;5035362;28;20025;-72
2023/04/17 04:44:30;;;;;;;0.13;0.13;;;6.80;99.90;;;;;;5036473;28;20048;-72
2023/04/17 04:46:56;;;;;;;0.20;0.20;;;6.80;99.90;;;;;;5037086;28;20471;-72
2023/04/17 04:49:22;;;;;;;0.20;0.20;;;6.80;99.90;;;;;;5036697;28;20086;-72
2023/04/17 04:51:47;;;;;;;0.20;0.20;;;6.80;99.90;;;;;;5036397;28;20014;-72
2023/04/17 04:54:13;;;;;;;0.20;0.20;;;6.80;99.90;;;;;;5036121;28;20495;-72
2023/04/17 04:56:39;;;;;;;0.20;0.20;;;6.90;99.90;;;;;;5035684;28;20174;-72
2023/04/17 04:59:04;;;;;;;0.20;0.20;;;6.90;99.90;;;;;;5035622;28;20021;-72
2023/04/17 05:01:30;;;;;;;0.20;0.20;;;7.10;99.90;;;;;;5035028;28;20025;-72
2023/04/17 05:03:56;;;;;;;0.20;0.20;;;7.10;99.90;;;;;;5036556;28;20382;-72
2023/04/17 05:06:21;;;;;;;0.20;0.20;;;7.20;99.90;;;;;;5035953;28;20107;-72
2023/04/17 05:08:47;;;;;;;0.20;0.20;;;7.20;99.90;;;;;;5035309;28;20029;-72
2023/04/17 05:11:13;;;;;;;0.20;0.20;;;7.20;99.90;;;;;;5036703;28;20029;-72
2023/04/17 05:13:39;;;;;;;0.20;0.20;;;7.20;99.90;;;;;;5036024;28;20398;-72
2023/04/17 05:16:05;;;;;;;0.10;0.10;;;7.20;99.90;;;;;;5035786;28;20033;-71
2023/04/17 05:18:30;;;;;;;0.20;0.20;;;7.20;99.90;;;;;;5036156;28;20057;-72
2023/04/17 05:20:56;;;;;;;0.20;0.20;;;7.20;99.90;;;;;;5036502;28;20124;-72
2023/04/17 05:23:21;;;;;;;0.30;0.30;;;7.30;99.90;;;;;;5035792;28;20029;-72
2023/04/17 05:25:48;;;;;;;0.20;0.20;;;7.40;99.90;;;;;;5034076;28;20597;-72
2023/04/17 05:28:14;;;;;;;0.20;0.20;;;7.40;99.90;;;;;;5034340;28;20026;-72
2023/04/17 05:30:40;;;;;;;0.10;0.10;;;7.40;99.90;;;;;;5035954;28;20368;-71
2023/04/17 05:33:05;;;;;;;0.20;0.20;;;7.50;99.90;;;;;;5036367;28;20018;-72
2023/04/17 05:35:31;;;;;;;0.20;0.20;;;7.50;99.90;;;;;;5034271;28;20602;-72
2023/04/17 05:37:56;;;;;;;0.20;0.20;;;7.60;99.90;;;;;;5035973;28;20080;-72
2023/04/17 05:40:22;;;;;;;0.20;0.20;;;7.70;99.90;;;;;;5035487;28;20029;-72
2023/04/17 05:42:47;;;;;;;0.20;0.20;;;7.70;99.90;;;;;;5035969;28;20079;-72
2023/04/17 05:45:14;;;;;;;0.20;0.20;;;7.70;99.90;;;;;;5035665;28;20033;-72
2023/04/17 05:47:40;;;;;;;0.20;0.20;;;7.80;99.90;;;;;;5035390;28;20501;-72
2023/04/17 05:50:07;;;;;;;0.20;0.20;;;7.90;99.90;;;;;;5035701;28;20108;-72
2023/04/17 05:52:33;;;;;;;0.20;0.20;;;8.00;99.90;;;;;;5035890;28;20022;-72
2023/04/17 05:54:58;;;;;;;0.20;0.20;;;8.10;99.90;;;;;;5035058;28;20045;-72
2023/04/17 05:57:24;;;;;;;0.20;0.20;;;8.20;99.90;;;;;;5035492;28;20426;-72
2023/04/17 05:59:50;;;;;;;0.20;0.20;;;8.30;99.90;;;;;;5034042;28;20040;-72
2023/04/17 06:02:16;;;;;;;0.20;0.20;;;8.50;99.90;;;;;;5050924;28;20017;-72
2023/04/17 06:04:42;;;;;;;0.20;0.20;;;8.60;99.90;;;;;;5034960;28;20034;-72
2023/04/17 06:07:09;;;;;;;0.20;0.20;;;8.80;99.90;;;;;;5035717;28;20495;-72
2023/04/17 06:09:35;;;;;;;0.10;0.10;;;8.90;99.90;;;;;;5033995;28;20506;-72
2023/04/17 06:12:01;;;;;;;0.20;0.20;;;9.10;99.90;;;;;;5035169;28;20013;-72
2023/04/17 06:14:27;;;;;;;0.10;0.10;;;9.30;99.90;;;;;;5035559;28;20036;-72
2023/04/17 06:16:52;;;;;;;0.20;0.20;;;9.50;99.90;;;;;;5034012;28;20041;-72
2023/04/17 06:19:18;;;;;;;0.20;0.20;;;9.70;99.90;;;;;;5035169;28;20028;-72
2023/04/17 06:21:43;;;;;;;0.20;0.20;;;9.80;99.90;;;;;;5034819;28;20026;-71
2023/04/17 06:24:09;;;;;;;0.10;0.10;;;9.90;99.90;;;;;;5034921;28;20026;-71
2023/04/17 06:26:35;;;;;;;0.10;0.10;;;10.00;99.90;;;;;;5033469;28;20025;-71
2023/04/17 06:29:00;;;;;;;0.20;0.20;;;10.00;99.90;;;;;;5035143;28;20013;-71
2023/04/17 06:31:26;;;;;;;0.20;0.20;;;10.00;99.90;;;;;;5050022;28;20021;-73
2023/04/17 06:33:52;;;;;;;0.20;0.20;;;10.10;99.90;;;;;;5035074;28;20403;-72
2023/04/17 06:36:17;;;;;;;0.20;0.20;;;10.10;99.90;;;;;;5026085;28;20045;-73
2023/04/17 06:38:43;;;;;;;0.20;0.20;;;10.10;99.90;;;;;;5031394;28;20052;-73
2023/04/17 06:41:11;;;;;;;0.20;0.20;;;10.20;99.90;;;;;;5053371;28;20032;-73
2023/04/17 06:43:37;;;;;;;0.10;0.10;;;10.20;99.90;;;;;;5038965;28;20030;-73
2023/04/17 06:46:02;;;;;;;0.17;0.17;;;10.40;99.90;;;;;;5038920;28;20025;-73
2023/04/17 06:48:28;;;;;;;0.20;0.20;;;10.40;99.90;;;;;;5038229;28;20048;-73
2023/04/17 06:50:56;;;;;;;0.20;0.20;;;10.60;99.90;;;;;;5039493;28;20108;-73
2023/04/17 06:53:24;;;;;;;0.20;0.20;;;10.80;99.90;;;;;;5038246;28;20036;-73
2023/04/17 06:56:23;;;;;;;0.20;0.20;;;10.70;99.90;;;;;;5098144;23;20048;-74
2023/04/17 06:58:48;;;;;;;0.20;0.20;;;10.90;99.90;;;;;;5036760;28;20017;-74
2023/04/17 07:01:14;;;;;;;0.20;0.20;;;10.80;99.90;;;;;;5035590;28;20478;-74
2023/04/17 07:03:40;;;;;;;0.10;0.10;;;10.80;99.90;;;;;;5036574;28;20021;-74
2023/04/17 07:06:06;;;;;;;0.20;0.20;;;10.80;99.90;;;;;;5052880;28;20398;-74
2023/04/17 07:08:31;;;;;;;0.20;0.20;;;11.00;99.90;;;;;;5054935;28;20021;-75
2023/04/17 07:10:57;;;;;;;0.20;0.20;;;11.10;99.90;;;;;;5055088;28;20584;-75
2023/04/17 07:13:23;;;;;;;0.20;0.20;;;11.30;99.90;;;;;;5056518;28;20021;-74
2023/04/17 07:15:53;;;;;;;0.20;0.20;;;11.30;99.90;;;;;;5056241;28;20029;-75
2023/04/17 07:18:20;;;;;;;0.20;0.20;;;11.30;99.90;;;;;;5056436;28;20017;-74
2023/04/17 07:20:46;;;;;;;0.20;0.20;;;11.30;99.90;;;;;;5055421;28;20044;-74
2023/04/17 07:23:14;;;;;;;0.20;0.20;;;11.40;99.90;;;;;;5056494;28;20382;-74
2023/04/17 07:25:39;;;;;;;0.20;0.20;;;11.40;99.90;;;;;;5054581;28;20021;-75
2023/04/17 07:28:06;;;;;;;0.20;0.20;;;11.60;99.90;;;;;;5056144;28;20029;-75
2023/04/17 07:30:31;;;;;;;0.20;0.20;;;11.60;99.90;;;;;;5056324;28;20025;-75
2023/04/17 07:32:57;;;;;;;0.20;0.20;;;11.70;99.90;;;;;;5056307;28;20075;-75
2023/04/17 07:35:23;;;;;;;0.20;0.20;;;11.70;99.90;;;;;;5055353;28;20474;-75
2023/04/17 07:37:50;;;;;;;0.20;0.20;;;11.80;99.90;;;;;;5055850;28;20444;-75
2023/04/17 07:40:16;;;;;;;0.20;0.20;;;11.70;99.90;;;;;;5056037;28;20095;-75
2023/04/17 07:42:42;;;;;;;0.20;0.20;;;11.90;99.90;;;;;;5055410;28;20044;-75
2023/04/17 07:45:09;;;;;;;0.20;0.20;;;11.90;99.90;;;;;;5055454;28;20071;-75
2023/04/17 07:47:34;;;;;;;0.10;0.10;;;12.10;99.90;;;;;;5054287;28;20509;-75
2023/04/17 07:50:00;;;;;;;0.10;0.10;;;12.10;99.90;;;;;;5055491;28;20021;-75
2023/04/17 07:52:26;;;;;;;0.20;0.20;;;12.30;99.90;;;;;;5054810;28;20474;-75
2023/04/17 07:54:51;;;;;;;0.20;0.20;;;12.60;99.90;;;;;;5054050;28;20025;-75
2023/04/17 07:57:17;;;;;;;0.20;0.20;;;12.80;99.90;;;;;;5055611;28;20135;-75
2023/04/17 07:59:43;;;;;;;0.20;0.20;;;13.00;99.90;;;;;;5054767;28;20036;-75
2023/04/17 08:02:09;;;;;;;0.20;0.20;;;12.90;99.90;;;;;;5054324;28;20058;-75
2023/04/17 08:04:36;;;;;;;0.10;0.10;;;12.70;99.90;;;;;;5055246;28;20029;-76
2023/04/17 08:07:01;;;;;;;0.10;0.10;;;12.90;99.90;;;;;;5055565;28;20017;-75
2023/04/17 08:09:33;;;;;;;0.13;0.13;;;13.10;99.90;;;;;;5053886;28;20036;-75
2023/04/17 08:11:58;;;;;;;0.20;0.20;;;13.10;99.90;;;;;;5054393;28;20040;-76
2023/04/17 08:14:24;;;;;;;0.10;0.10;;;13.40;99.90;;;;;;5053073;28;20475;-75
2023/04/17 08:16:49;;;;;;;0.10;0.10;;;13.40;99.90;;;;;;5055667;28;20040;-76
2023/04/17 08:19:15;;;;;;;0.20;0.20;;;13.40;99.90;;;;;;5055174;28;20025;-75
2023/04/17 08:21:40;;;;;;;0.20;0.20;;;13.40;99.90;;;;;;5055452;28;20429;-76
2023/04/17 08:24:06;;;;;;;0.10;0.10;;;13.50;99.90;;;;;;5053797;28;20025;-76
2023/04/17 08:26:32;;;;;;;0.20;0.20;;;13.50;99.90;;;;;;5055030;28;20029;-76
2023/04/17 08:29:00;;;;;;;0.15;0.15;;;13.80;99.90;;;;;;5054501;28;20025;-76
2023/04/17 08:31:27;;;;;;;0.10;0.10;;;13.90;99.90;;;;;;5055167;28;20044;-76
2023/04/17 08:33:53;;;;;;;0.10;0.10;;;14.00;99.90;;;;;;5053730;28;20104;-76
2023/04/17 08:36:19;;;;;;;0.20;0.20;;;14.10;99.90;;;;;;5054046;28;20072;-76
2023/04/17 08:38:46;;;;;;;0.20;0.20;;;14.30;99.90;;;;;;5054826;28;20053;-76
2023/04/17 08:41:15;;;;;;;0.13;0.13;;;14.20;99.90;;;;;;5055089;28;20048;-75
2023/04/17 08:43:42;;;;;;;0.15;0.15;;;14.40;99.90;;;;;;5054806;28;20031;-76
2023/04/17 08:46:07;;;;;;;0.20;0.20;;;14.40;99.90;;;;;;5054243;28;20051;-76
2023/04/17 08:48:33;;;;;;;0.10;0.10;;;14.50;99.90;;;;;;5054879;28;20060;-76
2023/04/17 08:50:59;;;;;;;0.13;0.13;;;14.60;99.90;;;;;;5054828;28;20394;-76
2023/04/17 08:53:25;;;;;;;0.20;0.20;;;15.00;99.90;;;;;;5053099;28;20044;-76
2023/04/17 08:56:11;;;;;;;0.15;0.15;;;15.10;99.90;;;;;;5059219;23;20045;-76
2023/04/17 08:58:41;;;;;;;0.10;0.10;;;15.00;99.90;;;;;;5054032;28;20037;-76
2023/04/17 09:01:12;;;;;;;0.15;0.15;;;15.20;99.90;;;;;;5055051;28;20391;-77
2023/04/17 09:03:47;;;;;;;0.20;0.20;;;15.10;99.90;;;;;;5054715;28;20017;-77
2023/04/17 09:06:16;;;;;;;0.10;0.10;;;15.30;99.90;;;;;;5072389;28;20024;-77
2023/04/17 09:08:58;;;;;;;0.20;0.20;;;15.50;99.90;;;;;;5057090;28;20031;-76
2023/04/17 09:11:24;;;;;;;0.10;0.10;;;15.40;99.90;;;;;;5074333;28;20101;-76
2023/04/17 09:13:50;;;;;;;0.20;0.20;;;15.50;99.90;;;;;;5074332;28;20117;-76
2023/04/17 09:16:18;;;;;;;0.20;0.20;;;15.40;99.90;;;;;;5073230;28;20020;-76
2023/04/17 09:18:45;;;;;;;0.20;0.20;;;15.40;99.90;;;;;;5074345;28;20478;-76
2023/04/17 09:21:11;;;;;;;0.20;0.20;;;15.30;99.90;;;;;;5072770;28;20020;-76
2023/04/17 09:23:55;;;;;;;0.20;0.20;;;15.40;99.90;;;;;;5073556;28;20056;-76
2023/04/17 09:26:25;;;;;;;0.10;0.10;;;15.50;99.90;;;;;;5074293;28;20074;-76
2023/04/17 09:29:12;;;;;;;0.10;0.10;;;15.50;99.90;;;;;;5074496;28;20094;-76
2023/04/17 09:31:38;;;;;;;0.20;0.20;;;15.50;99.90;;;;;;5072637;28;20074;-76
2023/04/17 09:34:10;;;;;;;0.13;0.13;;;15.60;99.90;;;;;;5074160;28;20112;-76
2023/04/17 09:36:37;;;;;;;0.13;0.13;;;15.70;99.90;;;;;;5072509;28;20028;-76
2023/04/17 09:39:05;;;;;;;0.20;0.20;;;16.00;99.90;;;;;;5073997;28;20570;-76
2023/04/17 09:41:38;;;;;;;0.20;0.20;;;16.10;99.90;;;;;;5072396;28;20025;-75
2023/04/17 09:44:05;;;;;;;0.10;0.10;;;16.30;99.90;;;;;;5072666;28;20029;-77
2023/04/17 09:46:31;;;;;;;0.20;0.20;;;16.10;99.90;;;;;;5073141;28;20024;-76
2023/04/17 09:49:05;;;;;;;0.10;0.10;;;16.20;99.90;;;;;;5073405;28;20024;-77
2023/04/17 09:51:33;;;;;;;0.20;0.20;;;16.20;99.90;;;;;;5072321;28;20024;-76
2023/04/17 09:53:59;;;;;;;0.20;0.20;;;16.10;99.90;;;;;;5073977;28;20112;-77
2023/04/17 09:56:26;;;;;;;0.13;0.13;;;16.10;99.90;;;;;;5073216;28;20413;-77
2023/04/17 09:58:52;;;;;;;0.17;0.17;;;16.30;99.90;;;;;;5072859;28;20375;-77
2023/04/17 10:01:18;;;;;;;0.20;0.20;;;16.60;99.90;;;;;;5074965;28;20158;-77
2023/04/17 10:03:44;;;;;;;0.10;0.10;;;16.70;99.90;;;;;;5077449;28;20024;-77
2023/04/17 10:06:11;;;;;;;0.20;0.20;;;16.60;99.90;;;;;;5050846;23;20102;-77
2023/04/17 10:08:42;;;;;;;0.20;0.20;;;16.70;99.90;;;;;;5035947;28;20029;-77
2023/04/17 10:11:14;;;;;;;0.10;0.10;;;16.60;99.90;;;;;;5036877;28;20033;-76
2023/04/17 10:13:43;;;;;;;0.10;0.10;;;16.60;99.90;;;;;;5037356;28;20027;-76
2023/04/17 10:16:09;;;;;;;0.15;0.15;;;16.90;99.90;;;;;;5052950;28;20044;-78
2023/04/17 10:18:35;;;;;;;0.10;0.10;;;17.00;99.90;;;;;;5055801;28;20032;-78
2023/04/17 10:21:20;;;;;;;0.10;0.10;;;17.00;99.90;;;;;;5056692;28;20418;-77
2023/04/17 10:23:46;;;;;;;0.20;0.20;;;17.10;99.90;;;;;;5057365;28;20056;-76
2023/04/17 10:26:24;;;;;;;0.08;0.08;;;17.20;99.90;;;;;;5056372;28;20060;-76
2023/04/17 10:28:56;;;;;;;0.13;0.13;;;17.50;99.90;;;;;;5053168;28;20055;-77
2023/04/17 10:31:22;;;;;;;0.20;0.20;;;17.40;99.90;;;;;;5056695;28;20017;-78
2023/04/17 10:33:52;;;;;;;0.10;0.10;;;17.50;99.90;;;;;;5058130;28;20031;-76
2023/04/17 10:36:38;;;;;;;0.10;0.10;;;17.60;99.90;;;;;;5058009;28;20052;-78
2023/04/17 10:39:14;;;;;;;0.10;0.10;;;17.60;99.90;;;;;;5057271;28;20029;-76
2023/04/17 10:42:03;;;;;;;0.10;0.10;;;17.80;99.90;;;;;;5054822;28;20060;-77
2023/04/17 10:44:38;;;;;;;0.10;0.10;;;17.70;99.90;;;;;;5047170;28;20041;-77
2023/04/17 10:47:09;;;;;;;0.10;0.10;;;17.80;99.90;;;;;;5055815;28;20398;-76
2023/04/17 10:49:52;;;;;;;0.13;0.13;;;17.40;99.90;;;;;;5054314;28;20087;-78
2023/04/17 10:52:33;;;;;;;0.10;0.10;;;17.30;99.90;;;;;;5054633;28;20021;-79
2023/04/17 10:55:09;;;;;;;0.10;0.10;;;17.40;99.90;;;;;;5056154;28;20021;-78
2023/04/17 10:57:56;;;;;;;0.10;0.10;;;17.40;99.90;;;;;;5055863;28;20048;-78
2023/04/17 11:00:35;;;;;;;0.10;0.10;;;17.40;99.90;;;;;;5055720;28;20083;-78
2023/04/17 11:03:02;;;;;;;0.10;0.10;;;17.70;99.90;;;;;;5054499;28;20028;-77
2023/04/17 11:05:30;;;;;;;0.10;0.10;;;17.80;99.90;;;;;;5065564;28;20024;-78
2023/04/17 11:07:56;;;;;;;0.15;0.15;;;17.90;99.90;;;;;;5057647;28;20042;-78
2023/04/17 11:10:24;;;;;;;0.10;0.10;;;18.00;99.90;;;;;;5057367;28;20028;-79
2023/04/17 11:12:55;;;;;;;0.10;0.10;;;18.20;99.90;;;;;;5075343;28;20032;-79
2023/04/17 11:15:28;;;;;;;0.10;0.10;;;18.30;99.90;;;;;;5071944;23;20132;-79
2023/04/17 11:17:55;;;;;;;0.10;0.10;;;18.40;99.90;;;;;;5060877;28;20076;-77
2023/04/17 11:20:26;;;;;;;0.20;0.20;;;18.40;99.90;;;;;;5050178;28;20021;-81
2023/04/17 11:22:57;;;;;;;0.10;0.10;;;18.60;99.90;;;;;;5032355;28;20089;-77
2023/04/17 11:25:47;;;;;;;0.10;0.10;;;18.80;99.90;;;;;;5064814;28;20029;-78
2023/04/17 11:28:22;;;;;;;0.10;0.10;;;18.80;99.90;;;;;;5078100;28;20071;-78
2023/04/17 11:30:50;;;;;;;0.10;0.10;;;18.80;99.90;;;;;;5080291;28;20100;-80
2023/04/17 11:33:35;;;;;;;0.10;0.10;;;18.60;99.90;;;;;;5088292;28;20022;-78
2023/04/17 11:36:21;;;;;;;0.10;0.10;;;18.50;99.90;;;;;;5097545;28;20123;-79
2023/04/17 11:38:50;;;;;;;0.10;0.10;;;18.70;99.90;;;;;;5098365;28;20048;-78
2023/04/17 11:41:35;;;;;;;0.10;0.10;;;19.00;99.90;;;;;;5077927;28;20031;-79
2023/04/17 11:44:07;;;;;;;0.10;0.10;;;18.50;99.90;;;;;;5098726;28;20032;-80
2023/04/17 11:46:47;;;;;;;0.05;0.05;;;18.40;99.90;;;;;;5098471;28;20048;-78
2023/04/17 11:49:33;;;;;;;0.10;0.10;;;18.70;99.90;;;;;;5078999;28;20028;-79
2023/04/17 11:52:00;;;;;;;0.10;0.10;;;19.00;99.90;;;;;;5094749;28;20033;-79
2023/04/17 11:54:44;;;;;;;0.10;0.10;;;19.20;99.90;;;;;;5095104;28;20035;-80
2023/04/17 11:57:13;;;;;;;0.10;0.10;;;19.80;99.90;;;;;;5098864;28;20072;-79
2023/04/17 11:59:44;;;;;;;0.10;0.10;;;19.80;99.90;;;;;;5097373;28;20024;-79
2023/04/17 12:02:27;;;;;;;0.10;0.10;;;19.90;99.90;;;;;;5098642;28;20021;-78
2023/04/17 12:05:18;;;;;;;0.10;0.10;;;20.30;99.90;;;;;;5095338;28;20025;-79
2023/04/17 12:07:44;;;;;;;0.10;0.10;;;20.70;99.90;;;;;;5099093;28;20071;-80
2023/04/17 12:10:21;;;;;;;0.10;0.10;;;20.80;99.90;;;;;;5095203;28;20013;-78
2023/04/17 12:12:50;;;;;;;0.10;0.10;;;20.50;99.90;;;;;;5095513;28;20031;-78
2023/04/17 12:15:34;;;;;;;0.10;0.10;;;20.50;99.90;;;;;;5094376;28;20032;-80
2023/04/17 12:18:17;;;;;;;0.10;0.10;;;20.60;99.90;;;;;;5093918;28;20076;-78
2023/04/17 12:20:51;;;;;;;0.10;0.10;;;20.80;99.90;;;;;;5072402;28;20016;-77
2023/04/17 12:23:26;;;;;;;0.10;0.10;;;20.80;99.90;;;;;;5089777;28;20036;-79
2023/04/17 12:25:57;;;;;;;0.10;0.10;;;21.20;99.90;;;;;;5109494;22;20049;-78
2023/04/17 12:28:26;;;;;;;0.10;0.10;;;21.50;99.90;;;;;;5046195;28;20056;-78
2023/04/17 12:30:52;;;;;;;0.10;0.10;;;21.50;99.90;;;;;;5044271;28;20026;-78
2023/04/17 12:33:17;;;;;;;0.03;0.03;;;21.90;99.90;;;;;;5041205;28;20498;-78
2023/04/17 12:35:43;;;;;;;0.10;0.10;;;21.30;99.90;;;;;;5037260;28;20098;-77
2023/04/17 12:38:08;;;;;;;0.00;0.00;;;22.00;99.90;;;;;;5064228;28;20605;-77
2023/04/17 12:40:44;;;;;;;0.10;0.10;;;22.10;99.90;;;;;;5048271;28;20498;-78
2023/04/17 12:43:10;;;;;;;0.10;0.10;;;21.80;99.90;;;;;;5048599;28;20031;-78
2023/04/17 12:45:36;;;;;;;0.00;0.00;;;21.70;99.90;;;;;;5163495;23;20055;-79
2023/04/17 12:48:02;;;;;;;0.10;0.10;;;22.10;99.90;;;;;;5064064;28;20021;-78
2023/04/17 12:50:31;;;;;;;0.00;0.00;;;22.10;99.90;;;;;;5045654;28;20021;-77
2023/04/17 12:53:10;;;;;;;;;;;;;;;;;;;;;
2023/04/17 12:55:56;;;;;;;0.10;0.10;;;23.10;99.90;;;;;;5077095;28;20120;-78
2023/04/17 12:58:31;;;;;;;0.00;0.00;;;22.80;99.90;;;;;;5084851;28;20029;-77